sensor_id;sensor_type;location;lat;lon;timestamp;pressure;altitude;pressure_sealevel;temperature;humidity
10852;BME280;5479;52.046;6.314;2023-04-25T00:00:46;100897.13;;;6.96;100.00
10852;BME280;5479;52.046;6.314;2023-04-25T00:03:15;100897.66;;;6.84;100.00
10852;BME280;5479;52.046;6.314;2023-04-25T00:05:43;100897.53;;;6.87;100.00
10852;BME280;5479;52.046;6.314;2023-04-25T00:08:11;100898.66;;;6.82;100.00
10852;BME280;5479;52.046;6.314;2023-04-25T00:10:41;100903.19;;;6.78;100.00
10852;BME280;5479;52.046;6.314;2023-04-25T00:13:09;100905.19;;;6.72;100.00
10852;BME280;5479;52.046;6.314;2023-04-25T00:15:40;100902.00;;;6.65;100.00
10852;BME280;5479;52.046;6.314;2023-04-25T00:18:08;100911.59;;;6.66;100.00
10852;BME280;5479;52.046;6.314;2023-04-25T00:20:37;100924.75;;;6.66;100.00
10852;BME280;5479;52.046;6.314;2023-04-25T00:23:05;100920.66;;;6.59;100.00
10852;BME280;5479;52.046;6.314;2023-04-25T00:25:35;100924.88;;;6.63;100.00
10852;BME280;5479;52.046;6.314;2023-04-25T00:28:05;100921.94;;;6.71;100.00
10852;BME280;5479;52.046;6.314;2023-04-25T00:30:33;100926.56;;;6.64;100.00
10852;BME280;5479;52.046;6.314;2023-04-25T00:33:01;100928.53;;;6.59;100.00
10852;BME280;5479;52.046;6.314;2023-04-25T00:35:29;100920.44;;;6.63;100.00
10852;BME280;5479;52.046;6.314;2023-04-25T00:37:57;100921.44;;;6.61;100.00
10852;BME280;5479;52.046;6.314;2023-04-25T00:40:25;100912.09;;;6.54;100.00
10852;BME280;5479;52.046;6.314;2023-04-25T00:42:54;100910.00;;;6.62;100.00
10852;BME280;5479;52.046;6.314;2023-04-25T00:45:27;100900.81;;;6.72;100.00
10852;BME280;5479;52.046;6.314;2023-04-25T00:47:56;100905.81;;;6.58;100.00
10852;BME280;5479;52.046;6.314;2023-04-25T00:50:25;100912.88;;;6.56;100.00
10852;BME280;5479;52.046;6.314;2023-04-25T00:52:53;100917.59;;;6.48;100.00
10852;BME280;5479;52.046;6.314;2023-04-25T00:55:21;100915.91;;;6.47;100.00
10852;BME280;5479;52.046;6.314;2023-04-25T00:57:51;100911.06;;;6.36;100.00
10852;BME280;5479;52.046;6.314;2023-04-25T01:00:19;100916.63;;;6.29;100.00
10852;BME280;5479;52.046;6.314;2023-04-25T01:02:49;100925.56;;;6.25;100.00
10852;BME280;5479;52.046;6.314;2023-04-25T01:05:18;100934.47;;;6.21;100.00
10852;BME280;5479;52.046;6.314;2023-04-25T01:07:47;100934.78;;;6.13;100.00
10852;BME280;5479;52.046;6.314;2023-04-25T01:10:16;100942.84;;;6.08;100.00
10852;BME280;5479;52.046;6.314;2023-04-25T01:12:44;100929.50;;;6.13;100.00
10852;BME280;5479;52.046;6.314;2023-04-25T01:15:12;100934.44;;;6.22;100.00
10852;BME280;5479;52.046;6.314;2023-04-25T01:17:44;100938.81;;;6.22;100.00
10852;BME280;5479;52.046;6.314;2023-04-25T01:20:15;100941.25;;;6.26;100.00
10852;BME280;5479;52.046;6.314;2023-04-25T01:22:45;100939.47;;;6.28;100.00
10852;BME280;5479;52.046;6.314;2023-04-25T01:25:16;100943.63;;;6.34;100.00
10852;BME280;5479;52.046;6.314;2023-04-25T01:27:45;100939.94;;;6.38;100.00
10852;BME280;5479;52.046;6.314;2023-04-25T01:30:16;100936.28;;;6.42;100.00
10852;BME280;5479;52.046;6.314;2023-04-25T01:32:46;100947.50;;;6.45;100.00
10852;BME280;5479;52.046;6.314;2023-04-25T01:35:16;100944.09;;;6.43;100.00
10852;BME280;5479;52.046;6.314;2023-04-25T01:37:47;100950.47;;;6.38;100.00
10852;BME280;5479;52.046;6.314;2023-04-25T01:40:18;100951.91;;;6.45;100.00
10852;BME280;5479;52.046;6.314;2023-04-25T01:42:47;100957.31;;;6.42;100.00
10852;BME280;5479;52.046;6.314;2023-04-25T01:45:19;100958.31;;;6.39;100.00
10852;BME280;5479;52.046;6.314;2023-04-25T01:47:49;100961.88;;;6.37;100.00
10852;BME280;5479;52.046;6.314;2023-04-25T01:50:18;100966.34;;;6.35;100.00
10852;BME280;5479;52.046;6.314;2023-04-25T01:52:49;100970.59;;;6.39;100.00
10852;BME280;5479;52.046;6.314;2023-04-25T01:55:17;100969.19;;;6.30;100.00
10852;BME280;5479;52.046;6.314;2023-04-25T01:57:45;100974.91;;;6.40;100.00
10852;BME280;5479;52.046;6.314;2023-04-25T02:00:15;100975.00;;;6.38;100.00
10852;BME280;5479;52.046;6.314;2023-04-25T02:02:43;100969.84;;;6.35;100.00
10852;BME280;5479;52.046;6.314;2023-04-25T02:05:11;100964.91;;;6.28;100.00
10852;BME280;5479;52.046;6.314;2023-04-25T02:07:39;100978.28;;;6.22;100.00
10852;BME280;5479;52.046;6.314;2023-04-25T02:10:09;100978.44;;;6.17;100.00
10852;BME280;5479;52.046;6.314;2023-04-25T02:12:40;100980.56;;;6.07;100.00
10852;BME280;5479;52.046;6.314;2023-04-25T02:15:09;100984.81;;;6.12;100.00
10852;BME280;5479;52.046;6.314;2023-04-25T02:17:38;100986.28;;;6.19;100.00
10852;BME280;5479;52.046;6.314;2023-04-25T02:20:06;100981.13;;;6.16;100.00
10852;BME280;5479;52.046;6.314;2023-04-25T02:22:35;100980.28;;;6.15;100.00
10852;BME280;5479;52.046;6.314;2023-04-25T02:25:05;100977.72;;;6.14;100.00
10852;BME280;5479;52.046;6.314;2023-04-25T02:27:37;100988.44;;;6.07;100.00
10852;BME280;5479;52.046;6.314;2023-04-25T02:30:06;100989.16;;;6.13;100.00
10852;BME280;5479;52.046;6.314;2023-04-25T02:32:35;100991.78;;;6.13;100.00
10852;BME280;5479;52.046;6.314;2023-04-25T02:35:03;100992.88;;;6.07;100.00
10852;BME280;5479;52.046;6.314;2023-04-25T02:37:34;100995.44;;;6.08;100.00
10852;BME280;5479;52.046;6.314;2023-04-25T02:40:03;100991.31;;;6.01;100.00
10852;BME280;5479;52.046;6.314;2023-04-25T02:42:31;100989.69;;;5.99;100.00
10852;BME280;5479;52.046;6.314;2023-04-25T02:45:02;100994.94;;;5.99;100.00
10852;BME280;5479;52.046;6.314;2023-04-25T02:47:31;100993.03;;;6.02;100.00
10852;BME280;5479;52.046;6.314;2023-04-25T02:50:02;100987.25;;;5.93;100.00
10852;BME280;5479;52.046;6.314;2023-04-25T02:52:31;100983.16;;;5.84;100.00
10852;BME280;5479;52.046;6.314;2023-04-25T02:55:00;100993.97;;;5.77;100.00
10852;BME280;5479;52.046;6.314;2023-04-25T02:57:29;100998.31;;;5.78;100.00
10852;BME280;5479;52.046;6.314;2023-04-25T02:59:58;101001.66;;;5.81;100.00
10852;BME280;5479;52.046;6.314;2023-04-25T03:02:27;101001.50;;;5.87;100.00
10852;BME280;5479;52.046;6.314;2023-04-25T03:04:55;100996.13;;;5.90;100.00
10852;BME280;5479;52.046;6.314;2023-04-25T03:07:25;100993.78;;;5.81;100.00
10852;BME280;5479;52.046;6.314;2023-04-25T03:09:53;100991.94;;;5.83;100.00
10852;BME280;5479;52.046;6.314;2023-04-25T03:12:24;101000.09;;;5.77;100.00
10852;BME280;5479;52.046;6.314;2023-04-25T03:14:52;100995.34;;;5.62;100.00
10852;BME280;5479;52.046;6.314;2023-04-25T03:17:20;101008.72;;;5.56;100.00
10852;BME280;5479;52.046;6.314;2023-04-25T03:19:53;101000.56;;;5.64;100.00
10852;BME280;5479;52.046;6.314;2023-04-25T03:22:22;101005.97;;;5.59;100.00
10852;BME280;5479;52.046;6.314;2023-04-25T03:24:51;101009.03;;;5.47;100.00
10852;BME280;5479;52.046;6.314;2023-04-25T03:27:20;101006.25;;;5.52;100.00
10852;BME280;5479;52.046;6.314;2023-04-25T03:29:50;101013.16;;;5.54;100.00
10852;BME280;5479;52.046;6.314;2023-04-25T03:32:18;101008.00;;;5.51;100.00
10852;BME280;5479;52.046;6.314;2023-04-25T03:34:48;101014.22;;;5.48;100.00
10852;BME280;5479;52.046;6.314;2023-04-25T03:37:18;101008.00;;;5.51;100.00
10852;BME280;5479;52.046;6.314;2023-04-25T03:39:45;101011.84;;;5.42;100.00
10852;BME280;5479;52.046;6.314;2023-04-25T03:42:13;101007.59;;;5.38;100.00
10852;BME280;5479;52.046;6.314;2023-04-25T03:44:41;101012.94;;;5.35;100.00
10852;BME280;5479;52.046;6.314;2023-04-25T03:47:12;101010.38;;;5.34;100.00
10852;BME280;5479;52.046;6.314;2023-04-25T03:49:41;101021.09;;;5.28;100.00
10852;BME280;5479;52.046;6.314;2023-04-25T03:52:09;101018.66;;;5.22;100.00
10852;BME280;5479;52.046;6.314;2023-04-25T03:54:39;101023.31;;;5.14;100.00
10852;BME280;5479;52.046;6.314;2023-04-25T03:57:07;101024.41;;;5.08;100.00
10852;BME280;5479;52.046;6.314;2023-04-25T03:59:35;101034.22;;;5.02;100.00
10852;BME280;5479;52.046;6.314;2023-04-25T04:02:10;101030.94;;;4.95;100.00
10852;BME280;5479;52.046;6.314;2023-04-25T04:04:38;101034.59;;;4.91;100.00
10852;BME280;5479;52.046;6.314;2023-04-25T04:07:09;101038.06;;;4.92;100.00
10852;BME280;5479;52.046;6.314;2023-04-25T04:09:38;101031.97;;;4.91;100.00
10852;BME280;5479;52.046;6.314;2023-04-25T04:12:06;101042.09;;;5.02;100.00
10852;BME280;5479;52.046;6.314;2023-04-25T04:14:35;101043.66;;;5.07;100.00
10852;BME280;5479;52.046;6.314;2023-04-25T04:17:03;101045.94;;;5.18;100.00
10852;BME280;5479;52.046;6.314;2023-04-25T04:19:32;101054.31;;;5.29;100.00
10852;BME280;5479;52.046;6.314;2023-04-25T04:22:00;101066.53;;;5.30;100.00
10852;BME280;5479;52.046;6.314;2023-04-25T04:24:28;101068.44;;;5.25;100.00
10852;BME280;5479;52.046;6.314;2023-04-25T04:26:56;101076.03;;;5.08;100.00
10852;BME280;5479;52.046;6.314;2023-04-25T04:29:26;101077.63;;;5.12;100.00
10852;BME280;5479;52.046;6.314;2023-04-25T04:31:54;101086.03;;;4.95;100.00
10852;BME280;5479;52.046;6.314;2023-04-25T04:34:22;101069.69;;;4.87;100.00
10852;BME280;5479;52.046;6.314;2023-04-25T04:36:53;101075.16;;;4.79;100.00
10852;BME280;5479;52.046;6.314;2023-04-25T04:39:23;101078.63;;;4.81;100.00
10852;BME280;5479;52.046;6.314;2023-04-25T04:41:50;101075.84;;;4.86;100.00
10852;BME280;5479;52.046;6.314;2023-04-25T04:44:20;101064.59;;;4.82;100.00
10852;BME280;5479;52.046;6.314;2023-04-25T04:46:50;101063.78;;;4.80;100.00
10852;BME280;5479;52.046;6.314;2023-04-25T04:49:19;101068.88;;;4.85;100.00
10852;BME280;5479;52.046;6.314;2023-04-25T04:51:49;101071.25;;;4.93;100.00
10852;BME280;5479;52.046;6.314;2023-04-25T04:54:17;101071.47;;;4.86;100.00
10852;BME280;5479;52.046;6.314;2023-04-25T04:56:45;101080.25;;;4.85;100.00
10852;BME280;5479;52.046;6.314;2023-04-25T04:59:14;101075.09;;;4.82;100.00
10852;BME280;5479;52.046;6.314;2023-04-25T05:01:44;101090.66;;;4.87;100.00
10852;BME280;5479;52.046;6.314;2023-04-25T05:04:14;101097.59;;;4.89;100.00
10852;BME280;5479;52.046;6.314;2023-04-25T05:06:44;101107.66;;;5.03;100.00
10852;BME280;5479;52.046;6.314;2023-04-25T05:09:16;101108.41;;;5.08;100.00
10852;BME280;5479;52.046;6.314;2023-04-25T05:11:45;101109.22;;;5.09;100.00
10852;BME280;5479;52.046;6.314;2023-04-25T05:14:14;101114.47;;;5.09;100.00
10852;BME280;5479;52.046;6.314;2023-04-25T05:16:44;101117.72;;;5.17;100.00
10852;BME280;5479;52.046;6.314;2023-04-25T05:19:13;101123.81;;;5.19;100.00
10852;BME280;5479;52.046;6.314;2023-04-25T05:21:41;101122.00;;;5.19;100.00
10852;BME280;5479;52.046;6.314;2023-04-25T05:24:11;101133.53;;;5.43;100.00
10852;BME280;5479;52.046;6.314;2023-04-25T05:26:39;101142.47;;;5.36;100.00
10852;BME280;5479;52.046;6.314;2023-04-25T05:29:07;101138.03;;;5.38;100.00
10852;BME280;5479;52.046;6.314;2023-04-25T05:31:37;101140.44;;;5.45;100.00
10852;BME280;5479;52.046;6.314;2023-04-25T05:34:07;101136.63;;;5.54;100.00
10852;BME280;5479;52.046;6.314;2023-04-25T05:36:35;101146.22;;;5.55;100.00
10852;BME280;5479;52.046;6.314;2023-04-25T05:39:03;101144.88;;;5.70;100.00
10852;BME280;5479;52.046;6.314;2023-04-25T05:41:35;101143.16;;;5.69;100.00
10852;BME280;5479;52.046;6.314;2023-04-25T05:44:03;101146.03;;;5.87;100.00
10852;BME280;5479;52.046;6.314;2023-04-25T05:46:31;101143.22;;;5.93;100.00
10852;BME280;5479;52.046;6.314;2023-04-25T05:48:59;101162.59;;;5.89;100.00
10852;BME280;5479;52.046;6.314;2023-04-25T05:51:28;101159.25;;;5.84;100.00
10852;BME280;5479;52.046;6.314;2023-04-25T05:54:00;101165.19;;;5.91;100.00
10852;BME280;5479;52.046;6.314;2023-04-25T05:56:28;101160.47;;;6.00;100.00
10852;BME280;5479;52.046;6.314;2023-04-25T05:58:55;101170.47;;;5.63;100.00
10852;BME280;5479;52.046;6.314;2023-04-25T06:01:25;101164.34;;;5.63;100.00
10852;BME280;5479;52.046;6.314;2023-04-25T06:03:53;101169.41;;;5.69;100.00
10852;BME280;5479;52.046;6.314;2023-04-25T06:06:22;101175.22;;;5.78;100.00
10852;BME280;5479;52.046;6.314;2023-04-25T06:08:51;101176.34;;;5.71;100.00
10852;BME280;5479;52.046;6.314;2023-04-25T06:11:20;101174.38;;;5.78;100.00
10852;BME280;5479;52.046;6.314;2023-04-25T06:13:48;101182.19;;;5.79;100.00
10852;BME280;5479;52.046;6.314;2023-04-25T06:16:16;101180.22;;;5.60;100.00
10852;BME280;5479;52.046;6.314;2023-04-25T06:18:44;101182.84;;;5.60;100.00
10852;BME280;5479;52.046;6.314;2023-04-25T06:21:12;101183.53;;;5.66;100.00
10852;BME280;5479;52.046;6.314;2023-04-25T06:23:40;101175.13;;;5.81;100.00
10852;BME280;5479;52.046;6.314;2023-04-25T06:26:10;101194.31;;;5.83;100.00
10852;BME280;5479;52.046;6.314;2023-04-25T06:28:38;101185.78;;;6.03;100.00
10852;BME280;5479;52.046;6.314;2023-04-25T06:31:08;101184.53;;;6.15;100.00
10852;BME280;5479;52.046;6.314;2023-04-25T06:33:36;101188.16;;;6.35;100.00
10852;BME280;5479;52.046;6.314;2023-04-25T06:36:04;101184.38;;;6.42;100.00
10852;BME280;5479;52.046;6.314;2023-04-25T06:38:33;101192.91;;;6.26;100.00
10852;BME280;5479;52.046;6.314;2023-04-25T06:41:02;101198.88;;;6.54;100.00
10852;BME280;5479;52.046;6.314;2023-04-25T06:43:32;101195.34;;;6.55;100.00
10852;BME280;5479;52.046;6.314;2023-04-25T06:46:02;101196.25;;;6.77;100.00
10852;BME280;5479;52.046;6.314;2023-04-25T06:48:30;101195.44;;;6.98;100.00
10852;BME280;5479;52.046;6.314;2023-04-25T06:50:58;101191.00;;;7.00;100.00
10852;BME280;5479;52.046;6.314;2023-04-25T06:53:26;101203.22;;;7.24;100.00
10852;BME280;5479;52.046;6.314;2023-04-25T06:55:57;101201.19;;;7.53;100.00
10852;BME280;5479;52.046;6.314;2023-04-25T06:58:25;101205.66;;;7.51;100.00
10852;BME280;5479;52.046;6.314;2023-04-25T07:00:56;101211.81;;;7.51;100.00
10852;BME280;5479;52.046;6.314;2023-04-25T07:03:25;101215.69;;;7.63;100.00
10852;BME280;5479;52.046;6.314;2023-04-25T07:05:54;101214.56;;;7.48;100.00
10852;BME280;5479;52.046;6.314;2023-04-25T07:08:26;101208.72;;;7.83;100.00
10852;BME280;5479;52.046;6.314;2023-04-25T07:10:55;101210.50;;;8.03;100.00
10852;BME280;5479;52.046;6.314;2023-04-25T07:13:24;101201.25;;;8.13;100.00
10852;BME280;5479;52.046;6.314;2023-04-25T07:15:53;101208.81;;;8.02;100.00
10852;BME280;5479;52.046;6.314;2023-04-25T07:18:23;101211.03;;;7.91;100.00
10852;BME280;5479;52.046;6.314;2023-04-25T07:20:51;101221.47;;;8.14;100.00
10852;BME280;5479;52.046;6.314;2023-04-25T07:23:20;101218.13;;;8.51;100.00
10852;BME280;5479;52.046;6.314;2023-04-25T07:25:49;101226.72;;;8.75;100.00
10852;BME280;5479;52.046;6.314;2023-04-25T07:28:19;101231.75;;;8.81;100.00
10852;BME280;5479;52.046;6.314;2023-04-25T07:30:47;101227.28;;;8.63;100.00
10852;BME280;5479;52.046;6.314;2023-04-25T07:33:16;101229.94;;;8.42;100.00
10852;BME280;5479;52.046;6.314;2023-04-25T07:35:45;101229.88;;;8.44;100.00
10852;BME280;5479;52.046;6.314;2023-04-25T07:38:16;101234.59;;;8.76;100.00
10852;BME280;5479;52.046;6.314;2023-04-25T07:40:44;101229.63;;;9.07;100.00
10852;BME280;5479;52.046;6.314;2023-04-25T07:43:12;101231.81;;;9.90;100.00
10852;BME280;5479;52.046;6.314;2023-04-25T07:45:43;101233.50;;;11.09;100.00
10852;BME280;5479;52.046;6.314;2023-04-25T07:48:11;101235.06;;;11.29;100.00
10852;BME280;5479;52.046;6.314;2023-04-25T07:50:39;101223.03;;;12.30;100.00
10852;BME280;5479;52.046;6.314;2023-04-25T07:53:09;101227.81;;;12.09;82.04
10852;BME280;5479;52.046;6.314;2023-04-25T07:55:37;101212.28;;;13.32;81.64
10852;BME280;5479;52.046;6.314;2023-04-25T07:58:06;101232.97;;;11.96;81.89
10852;BME280;5479;52.046;6.314;2023-04-25T08:00:35;101228.16;;;11.73;89.48
10852;BME280;5479;52.046;6.314;2023-04-25T08:03:06;101242.44;;;11.39;93.13
10852;BME280;5479;52.046;6.314;2023-04-25T08:05:35;101233.59;;;10.75;96.61
10852;BME280;5479;52.046;6.314;2023-04-25T08:08:02;101247.03;;;10.20;100.00
10852;BME280;5479;52.046;6.314;2023-04-25T08:10:35;101262.88;;;9.67;100.00
10852;BME280;5479;52.046;6.314;2023-04-25T08:13:03;101263.59;;;9.15;100.00
10852;BME280;5479;52.046;6.314;2023-04-25T08:15:32;101271.97;;;9.06;100.00
10852;BME280;5479;52.046;6.314;2023-04-25T08:18:00;101275.31;;;8.71;100.00
10852;BME280;5479;52.046;6.314;2023-04-25T08:20:28;101274.69;;;8.66;100.00
10852;BME280;5479;52.046;6.314;2023-04-25T08:22:56;101285.03;;;8.50;100.00
10852;BME280;5479;52.046;6.314;2023-04-25T08:25:25;101279.56;;;8.13;100.00
10852;BME280;5479;52.046;6.314;2023-04-25T08:27:55;101286.03;;;8.68;100.00
10852;BME280;5479;52.046;6.314;2023-04-25T08:30:23;101288.66;;;8.88;100.00
10852;BME280;5479;52.046;6.314;2023-04-25T08:32:51;101287.25;;;9.37;100.00
10852;BME280;5479;52.046;6.314;2023-04-25T08:35:20;101293.69;;;10.40;100.00
10852;BME280;5479;52.046;6.314;2023-04-25T08:37:48;101319.63;;;9.60;100.00
10852;BME280;5479;52.046;6.314;2023-04-25T08:40:19;101342.97;;;7.20;100.00
10852;BME280;5479;52.046;6.314;2023-04-25T08:42:52;101359.19;;;6.34;100.00
10852;BME280;5479;52.046;6.314;2023-04-25T08:45:23;101376.81;;;6.04;100.00
10852;BME280;5479;52.046;6.314;2023-04-25T08:47:52;101379.16;;;5.84;100.00
10852;BME280;5479;52.046;6.314;2023-04-25T08:50:22;101391.13;;;5.65;100.00
10852;BME280;5479;52.046;6.314;2023-04-25T08:52:53;101387.91;;;5.55;100.00
10852;BME280;5479;52.046;6.314;2023-04-25T08:55:23;101385.50;;;5.77;100.00
10852;BME280;5479;52.046;6.314;2023-04-25T08:57:51;101363.84;;;5.98;100.00
10852;BME280;5479;52.046;6.314;2023-04-25T09:00:23;101360.00;;;6.36;100.00
10852;BME280;5479;52.046;6.314;2023-04-25T09:02:51;101367.47;;;6.48;100.00
10852;BME280;5479;52.046;6.314;2023-04-25T09:05:20;101362.06;;;6.77;100.00
10852;BME280;5479;52.046;6.314;2023-04-25T09:07:49;101359.34;;;7.05;100.00
10852;BME280;5479;52.046;6.314;2023-04-25T09:10:17;101359.34;;;7.28;100.00
10852;BME280;5479;52.046;6.314;2023-04-25T09:13:02;101360.41;;;7.70;100.00
10852;BME280;5479;52.046;6.314;2023-04-25T09:15:31;101362.88;;;8.18;100.00
10852;BME280;5479;52.046;6.314;2023-04-25T09:18:00;101359.81;;;8.71;100.00
10852;BME280;5479;52.046;6.314;2023-04-25T09:20:28;101367.88;;;9.08;100.00
10852;BME280;5479;52.046;6.314;2023-04-25T09:23:03;101363.56;;;9.44;100.00
10852;BME280;5479;52.046;6.314;2023-04-25T09:25:34;101369.81;;;10.18;100.00
10852;BME280;5479;52.046;6.314;2023-04-25T09:28:06;101367.34;;;11.01;100.00
10852;BME280;5479;52.046;6.314;2023-04-25T09:30:36;101367.84;;;11.24;100.00
10852;BME280;5479;52.046;6.314;2023-04-25T09:33:05;101363.91;;;11.48;100.00
10852;BME280;5479;52.046;6.314;2023-04-25T09:35:35;101375.00;;;10.89;97.92
10852;BME280;5479;52.046;6.314;2023-04-25T09:38:08;101357.81;;;11.46;100.00
10852;BME280;5479;52.046;6.314;2023-04-25T09:40:39;101362.59;;;11.88;94.91
10852;BME280;5479;52.046;6.314;2023-04-25T09:43:18;101362.13;;;12.73;92.53
10852;BME280;5479;52.046;6.314;2023-04-25T09:45:50;101361.56;;;12.82;83.66
10852;BME280;5479;52.046;6.314;2023-04-25T09:48:19;101364.16;;;13.55;75.90
10852;BME280;5479;52.046;6.314;2023-04-25T09:51:03;101370.75;;;12.62;79.22
10852;BME280;5479;52.046;6.314;2023-04-25T09:53:31;101363.09;;;12.26;80.72
10852;BME280;5479;52.046;6.314;2023-04-25T09:56:00;101384.78;;;12.03;84.76
10852;BME280;5479;52.046;6.314;2023-04-25T09:58:29;101396.75;;;10.62;88.59
10852;BME280;5479;52.046;6.314;2023-04-25T10:01:00;101405.38;;;9.16;100.00
10852;BME280;5479;52.046;6.314;2023-04-25T10:03:30;101414.03;;;8.14;100.00
10852;BME280;5479;52.046;6.314;2023-04-25T10:05:59;101407.66;;;7.52;100.00
10852;BME280;5479;52.046;6.314;2023-04-25T10:08:31;101411.56;;;7.42;100.00
10852;BME280;5479;52.046;6.314;2023-04-25T10:11:00;101409.72;;;7.44;100.00
10852;BME280;5479;52.046;6.314;2023-04-25T10:13:30;101408.59;;;7.51;100.00
10852;BME280;5479;52.046;6.314;2023-04-25T10:16:02;101408.38;;;7.78;100.00
10852;BME280;5479;52.046;6.314;2023-04-25T10:18:32;101407.16;;;7.88;100.00
10852;BME280;5479;52.046;6.314;2023-04-25T10:21:01;101409.09;;;8.50;100.00
10852;BME280;5479;52.046;6.314;2023-04-25T10:23:30;101406.78;;;8.84;100.00
10852;BME280;5479;52.046;6.314;2023-04-25T10:25:59;101406.19;;;8.98;100.00
10852;BME280;5479;52.046;6.314;2023-04-25T10:28:27;101408.03;;;9.16;100.00
10852;BME280;5479;52.046;6.314;2023-04-25T10:31:01;101398.38;;;9.15;100.00
10852;BME280;5479;52.046;6.314;2023-04-25T10:33:32;101404.53;;;9.54;100.00
10852;BME280;5479;52.046;6.314;2023-04-25T10:36:09;101405.22;;;9.39;100.00
10852;BME280;5479;52.046;6.314;2023-04-25T10:38:37;101393.13;;;9.91;100.00
10852;BME280;5479;52.046;6.314;2023-04-25T10:41:07;101404.47;;;10.30;100.00
10852;BME280;5479;52.046;6.314;2023-04-25T10:43:37;101391.81;;;10.37;100.00
10852;BME280;5479;52.046;6.314;2023-04-25T10:46:18;101403.97;;;10.22;98.02
10852;BME280;5479;52.046;6.314;2023-04-25T10:48:48;101399.88;;;11.04;100.00
10852;BME280;5479;52.046;6.314;2023-04-25T10:51:19;101397.28;;;11.20;93.04
10852;BME280;5479;52.046;6.314;2023-04-25T10:53:57;101395.13;;;10.94;84.42
10852;BME280;5479;52.046;6.314;2023-04-25T10:56:26;101409.34;;;11.25;100.00
10852;BME280;5479;52.046;6.314;2023-04-25T10:59:06;101429.72;;;9.63;100.00
10852;BME280;5479;52.046;6.314;2023-04-25T11:01:38;101447.47;;;8.14;100.00
10852;BME280;5479;52.046;6.314;2023-04-25T11:04:19;101442.94;;;7.48;100.00
10852;BME280;5479;52.046;6.314;2023-04-25T11:07:02;101444.91;;;7.43;100.00
10852;BME280;5479;52.046;6.314;2023-04-25T11:09:33;101436.81;;;7.22;100.00
10852;BME280;5479;52.046;6.314;2023-04-25T11:12:01;101437.56;;;7.51;100.00
10852;BME280;5479;52.046;6.314;2023-04-25T11:14:29;101436.72;;;7.50;100.00
10852;BME280;5479;52.046;6.314;2023-04-25T11:17:01;101440.00;;;7.57;100.00
10852;BME280;5479;52.046;6.314;2023-04-25T11:19:29;101439.91;;;7.81;100.00
10852;BME280;5479;52.046;6.314;2023-04-25T11:21:59;101452.81;;;8.12;100.00
10852;BME280;5479;52.046;6.314;2023-04-25T11:24:28;101443.44;;;8.05;100.00
10852;BME280;5479;52.046;6.314;2023-04-25T11:26:57;101438.63;;;8.38;100.00
10852;BME280;5479;52.046;6.314;2023-04-25T11:29:26;101442.66;;;8.46;100.00
10852;BME280;5479;52.046;6.314;2023-04-25T11:31:54;101443.13;;;8.78;100.00
10852;BME280;5479;52.046;6.314;2023-04-25T11:34:26;101442.47;;;8.73;100.00
10852;BME280;5479;52.046;6.314;2023-04-25T11:36:57;101442.78;;;9.27;100.00
10852;BME280;5479;52.046;6.314;2023-04-25T11:39:27;101431.66;;;9.97;100.00
10852;BME280;5479;52.046;6.314;2023-04-25T11:41:55;101436.31;;;9.92;100.00
10852;BME280;5479;52.046;6.314;2023-04-25T11:44:23;101441.66;;;10.09;98.57
10852;BME280;5479;52.046;6.314;2023-04-25T11:46:51;101440.47;;;10.16;98.09
10852;BME280;5479;52.046;6.314;2023-04-25T11:49:19;101429.84;;;10.70;100.00
10852;BME280;5479;52.046;6.314;2023-04-25T11:51:49;101425.78;;;11.32;91.49
10852;BME280;5479;52.046;6.314;2023-04-25T11:54:18;101427.13;;;11.73;85.65
10852;BME280;5479;52.046;6.314;2023-04-25T11:56:46;101426.28;;;11.73;75.46
10852;BME280;5479;52.046;6.314;2023-04-25T11:59:14;101415.34;;;12.10;77.73
10852;BME280;5479;52.046;6.314;2023-04-25T12:01:49;101412.53;;;11.97;76.14
10852;BME280;5479;52.046;6.314;2023-04-25T12:04:18;101412.41;;;11.50;69.68
10852;BME280;5479;52.046;6.314;2023-04-25T12:06:47;101418.59;;;11.84;67.60
10852;BME280;5479;52.046;6.314;2023-04-25T12:09:19;101422.44;;;11.61;66.48
10852;BME280;5479;52.046;6.314;2023-04-25T12:11:52;101424.75;;;11.34;66.86
10852;BME280;5479;52.046;6.314;2023-04-25T12:14:22;101436.72;;;11.26;69.09
10852;BME280;5479;52.046;6.314;2023-04-25T12:16:55;101434.16;;;11.07;70.32
10852;BME280;5479;52.046;6.314;2023-04-25T12:19:24;101432.25;;;10.58;70.53
10852;BME280;5479;52.046;6.314;2023-04-25T12:21:53;101442.44;;;10.48;68.63
10852;BME280;5479;52.046;6.314;2023-04-25T12:24:23;101431.88;;;11.17;70.25
10852;BME280;5479;52.046;6.314;2023-04-25T12:26:53;101428.81;;;12.68;67.33
10852;BME280;5479;52.046;6.314;2023-04-25T12:29:23;101418.69;;;12.75;60.55
10852;BME280;5479;52.046;6.314;2023-04-25T12:31:52;101432.66;;;12.17;65.34
10852;BME280;5479;52.046;6.314;2023-04-25T12:34:21;101450.44;;;11.34;71.11
10852;BME280;5479;52.046;6.314;2023-04-25T12:36:51;101474.34;;;10.08;100.00
10852;BME280;5479;52.046;6.314;2023-04-25T12:39:20;101488.84;;;8.80;100.00
10852;BME280;5479;52.046;6.314;2023-04-25T12:41:51;101476.09;;;8.01;100.00
10852;BME280;5479;52.046;6.314;2023-04-25T12:44:40;101477.59;;;7.85;100.00
10852;BME280;5479;52.046;6.314;2023-04-25T12:47:28;101466.09;;;8.32;100.00
10852;BME280;5479;52.046;6.314;2023-04-25T12:49:57;101476.41;;;8.82;100.00
10852;BME280;5479;52.046;6.314;2023-04-25T12:52:24;101470.69;;;9.13;100.00
10852;BME280;5479;52.046;6.314;2023-04-25T12:54:52;101472.25;;;9.38;100.00
10852;BME280;5479;52.046;6.314;2023-04-25T12:57:22;101467.75;;;9.20;100.00
10852;BME280;5479;52.046;6.314;2023-04-25T12:59:50;101470.13;;;9.46;100.00
10852;BME280;5479;52.046;6.314;2023-04-25T13:02:18;101467.16;;;9.73;100.00
10852;BME280;5479;52.046;6.314;2023-04-25T13:04:46;101465.31;;;9.93;100.00
10852;BME280;5479;52.046;6.314;2023-04-25T13:07:14;101465.31;;;9.93;100.00
10852;BME280;5479;52.046;6.314;2023-04-25T13:09:42;101462.19;;;10.04;100.00
10852;BME280;5479;52.046;6.314;2023-04-25T13:12:10;101470.94;;;10.43;100.00